createdAt,value
2022-10-23T00:00:39.741Z,11.30
2022-10-23T00:03:06.562Z,11.35
2022-10-23T00:05:33.944Z,11.39
2022-10-23T00:08:01.055Z,11.38
2022-10-23T00:10:28.494Z,11.38
2022-10-23T00:12:55.324Z,11.39
2022-10-23T00:15:23.613Z,11.38
2022-10-23T00:17:50.662Z,11.37
2022-10-23T00:20:18.330Z,11.35
2022-10-23T00:22:45.280Z,11.34
2022-10-23T00:25:14.086Z,11.31
2022-10-23T00:27:41.152Z,11.27
2022-10-23T00:30:08.719Z,11.25
2022-10-23T00:32:35.444Z,11.23
2022-10-23T00:35:02.257Z,11.21
2022-10-23T00:37:29.003Z,11.17
2022-10-23T00:39:55.760Z,11.15
2022-10-23T00:42:23.047Z,11.13
2022-10-23T00:44:49.781Z,11.08
2022-10-23T00:47:18.060Z,11.04
2022-10-23T00:49:44.820Z,11.01
2022-10-23T00:52:13.752Z,10.98
2022-10-23T00:54:43.607Z,11.03
2022-10-23T00:57:14.523Z,11.05
2022-10-23T00:59:41.883Z,11.06
2022-10-23T01:02:09.369Z,11.03
2022-10-23T01:04:37.760Z,11.01
2022-10-23T01:07:17.713Z,10.99
2022-10-23T01:10:15.331Z,10.95
2022-10-23T01:12:45.057Z,10.91
2022-10-23T01:15:29.512Z,10.89
2022-10-23T01:18:05.459Z,10.85
2022-10-23T01:20:37.778Z,10.81
2022-10-23T01:23:32.260Z,10.78
2022-10-23T01:26:10.151Z,10.75
2022-10-23T01:28:44.361Z,10.71
2022-10-23T01:31:17.502Z,10.68
2022-10-23T01:33:59.962Z,10.64
2022-10-23T01:36:30.468Z,10.60
2022-10-23T01:39:07.734Z,10.57
2022-10-23T01:41:58.123Z,10.55
2022-10-23T01:44:34.005Z,10.53
2022-10-23T01:47:03.960Z,10.59
2022-10-23T01:49:32.475Z,10.61
2022-10-23T01:52:03.147Z,10.61
2022-10-23T01:54:34.265Z,10.59
2022-10-23T01:57:02.859Z,10.58
2022-10-23T01:59:37.494Z,10.56
2022-10-23T02:02:05.938Z,10.55
2022-10-23T02:04:46.428Z,10.54
2022-10-23T02:07:13.234Z,10.51
2022-10-23T02:09:40.228Z,10.49
2022-10-23T02:15:07.088Z,10.42
2022-10-23T02:17:55.005Z,10.38
2022-10-23T02:20:34.128Z,10.34
2022-10-23T02:23:25.732Z,10.31
2022-10-23T02:25:59.705Z,10.27
2022-10-23T02:28:34.563Z,10.24
2022-10-23T02:31:03.399Z,10.21
2022-10-23T02:33:31.612Z,10.18
2022-10-23T02:35:58.505Z,10.16
2022-10-23T02:38:51.552Z,10.23
2022-10-23T02:41:27.430Z,10.26
2022-10-23T02:43:57.076Z,10.27
2022-10-23T02:46:55.440Z,10.25
2022-10-23T02:49:45.686Z,10.23
2022-10-23T02:52:29.949Z,10.21
2022-10-23T02:55:17.573Z,10.19
2022-10-23T02:58:20.333Z,10.17
2022-10-23T03:00:53.128Z,10.15
2022-10-23T03:03:27.852Z,10.13
2022-10-23T03:05:54.829Z,10.11
2022-10-23T03:08:21.920Z,10.09
2022-10-23T03:13:20.287Z,10.03
2022-10-23T03:15:47.059Z,10.00
2022-10-23T03:18:13.859Z,9.97
2022-10-23T03:20:40.585Z,9.94
2022-10-23T03:23:07.431Z,9.92
2022-10-23T03:25:34.204Z,9.91
2022-10-23T03:28:00.926Z,9.89
2022-10-23T03:30:27.582Z,9.95
2022-10-23T03:32:54.319Z,9.98
2022-10-23T03:35:20.988Z,9.99
2022-10-23T03:37:47.760Z,9.96
2022-10-23T03:40:14.615Z,9.94
2022-10-23T03:42:41.322Z,9.93
2022-10-23T03:45:08.409Z,9.93
2022-10-23T03:47:35.785Z,9.92
2022-10-23T03:50:02.512Z,9.90
2022-10-23T03:52:29.194Z,9.88
2022-10-23T03:54:55.974Z,9.85
2022-10-23T03:57:22.674Z,9.83
2022-10-23T03:59:49.330Z,9.80
2022-10-23T04:02:16.220Z,9.77
2022-10-23T04:04:42.929Z,9.73
2022-10-23T04:07:10.080Z,9.69
2022-10-23T04:09:36.973Z,9.66
2022-10-23T04:12:03.858Z,9.63
2022-10-23T04:14:30.531Z,9.61
2022-10-23T04:16:57.314Z,9.61
2022-10-23T04:19:24.024Z,9.67
2022-10-23T04:21:50.770Z,9.70
2022-10-23T04:24:17.611Z,9.71
2022-10-23T04:26:44.311Z,9.69
2022-10-23T04:29:11.607Z,9.68
2022-10-23T04:31:38.329Z,9.66
2022-10-23T04:36:32.909Z,9.63
2022-10-23T04:38:59.690Z,9.63
2022-10-23T04:41:26.404Z,9.61
2022-10-23T04:43:53.123Z,9.58
2022-10-23T04:46:19.961Z,9.56
2022-10-23T04:48:46.643Z,9.54
2022-10-23T04:51:13.348Z,9.51
2022-10-23T04:53:40.186Z,9.48
2022-10-23T04:56:07.133Z,9.44
2022-10-23T04:58:33.806Z,9.41
2022-10-23T05:01:00.661Z,9.39
2022-10-23T05:03:27.621Z,9.36
2022-10-23T05:05:56.090Z,9.33
2022-10-23T05:08:23.741Z,9.41
2022-10-23T05:10:50.660Z,9.44
2022-10-23T05:13:20.084Z,9.45
2022-10-23T05:15:48.447Z,9.44
2022-10-23T05:18:35.735Z,9.42
2022-10-23T05:21:10.321Z,9.41
2022-10-23T05:23:38.808Z,9.39
2022-10-23T05:26:05.723Z,9.39
2022-10-23T05:28:32.466Z,9.39
2022-10-23T05:31:01.310Z,9.38
2022-10-23T05:33:29.648Z,9.37
2022-10-23T05:35:57.107Z,9.35
2022-10-23T05:38:23.995Z,9.33
2022-10-23T05:40:54.337Z,9.31
2022-10-23T05:43:21.128Z,9.30
2022-10-23T05:45:47.803Z,9.28
2022-10-23T05:48:22.849Z,9.27
2022-10-23T05:51:08.264Z,9.27
2022-10-23T05:53:36.273Z,9.36
2022-10-23T05:56:06.752Z,9.41
2022-10-23T05:58:34.280Z,9.45
2022-10-23T06:01:06.599Z,9.45
2022-10-23T06:03:33.657Z,9.47
2022-10-23T06:06:00.496Z,9.49
2022-10-23T06:08:27.218Z,9.51
2022-10-23T06:10:54.064Z,9.52
2022-10-23T06:13:20.900Z,9.53
2022-10-23T06:15:47.956Z,9.55
2022-10-23T06:18:14.735Z,9.55
2022-10-23T06:20:41.505Z,9.56
2022-10-23T06:23:08.631Z,9.57
2022-10-23T06:25:35.303Z,9.56
2022-10-23T06:28:02.081Z,9.56
2022-10-23T06:30:28.849Z,9.55
2022-10-23T06:32:55.722Z,9.55
2022-10-23T06:35:22.476Z,9.56
2022-10-23T06:37:49.168Z,9.64
2022-10-23T06:40:15.827Z,9.70
2022-10-23T06:42:42.711Z,9.74
2022-10-23T06:45:09.735Z,9.75
2022-10-23T06:47:36.432Z,9.77
2022-10-23T06:50:03.208Z,9.80
2022-10-23T06:52:46.491Z,9.82
2022-10-23T06:55:14.691Z,9.84
2022-10-23T06:57:41.733Z,9.86
2022-10-23T07:00:09.935Z,9.87
2022-10-23T07:02:37.028Z,9.87
2022-10-23T07:05:04.983Z,9.87
2022-10-23T07:07:33.586Z,9.88
2022-10-23T07:10:00.421Z,9.87
2022-10-23T07:12:28.800Z,9.85
2022-10-23T07:14:55.543Z,9.84
2022-10-23T07:17:22.376Z,9.84
2022-10-23T07:19:49.096Z,9.85
2022-10-23T07:22:16.200Z,9.95
2022-10-23T07:24:43.502Z,10.02
2022-10-23T07:27:10.180Z,10.07
2022-10-23T07:29:37.195Z,10.10
2022-10-23T07:32:04.881Z,10.13
2022-10-23T07:34:32.300Z,10.17
2022-10-23T07:36:59.045Z,10.20
2022-10-23T07:39:26.053Z,10.23
2022-10-23T07:41:52.785Z,10.26
2022-10-23T07:44:21.073Z,10.28
2022-10-23T07:46:49.894Z,10.31
2022-10-23T07:49:16.608Z,10.33
2022-10-23T07:51:45.525Z,10.35
2022-10-23T07:54:15.703Z,10.38
2022-10-23T07:56:42.375Z,10.39
2022-10-23T07:59:13.455Z,10.41
2022-10-23T08:01:42.658Z,10.45
2022-10-23T08:04:10.912Z,10.56
2022-10-23T08:06:38.498Z,10.65
2022-10-23T08:09:06.804Z,10.71
2022-10-23T08:11:35.933Z,10.75
2022-10-23T08:14:04.816Z,10.80
2022-10-23T08:16:37.014Z,10.86
2022-10-23T08:19:07.075Z,10.91
2022-10-23T08:21:34.323Z,10.95
2022-10-23T08:24:01.641Z,10.99
2022-10-23T08:26:31.736Z,11.05
2022-10-23T08:29:00.042Z,11.09
2022-10-23T08:31:27.964Z,11.13
2022-10-23T08:33:54.678Z,11.18
2022-10-23T08:36:25.887Z,11.32
2022-10-23T08:38:55.195Z,11.41
2022-10-23T08:41:38.911Z,11.49
2022-10-23T08:44:28.370Z,11.55
2022-10-23T08:47:26.230Z,11.62
2022-10-23T08:49:57.962Z,11.68
2022-10-23T08:52:24.632Z,11.74
2022-10-23T08:55:19.603Z,11.79
2022-10-23T08:57:58.887Z,11.85
2022-10-23T09:00:25.721Z,11.89
2022-10-23T09:02:54.557Z,11.95
2022-10-23T09:05:31.001Z,12.00
2022-10-23T09:08:06.919Z,12.04
2022-10-23T09:11:23.320Z,12.10
2022-10-23T09:14:14.836Z,12.27
2022-10-23T09:17:05.153Z,12.38
2022-10-23T09:19:32.275Z,12.48
2022-10-23T09:21:59.531Z,12.57
2022-10-23T09:24:31.779Z,12.66
2022-10-23T09:27:00.756Z,12.73
2022-10-23T09:29:36.026Z,12.79
2022-10-23T09:32:07.178Z,12.87
2022-10-23T09:34:35.170Z,12.95
2022-10-23T09:37:23.094Z,13.01
2022-10-23T09:40:00.909Z,13.10
2022-10-23T09:42:27.691Z,13.16
2022-10-23T09:44:55.346Z,13.20
2022-10-23T09:47:25.388Z,13.26
2022-10-23T09:49:54.322Z,13.32
2022-10-23T09:52:37.075Z,13.39
2022-10-23T09:55:20.887Z,13.54
2022-10-23T09:57:48.038Z,13.69
2022-10-23T10:00:14.942Z,13.80
2022-10-23T10:02:58.332Z,13.90
2022-10-23T10:05:33.596Z,14.03
2022-10-23T10:08:15.629Z,14.14
2022-10-23T10:10:49.590Z,14.28
2022-10-23T10:13:32.909Z,14.45
2022-10-23T10:16:11.698Z,14.61
2022-10-23T10:18:42.575Z,14.74
2022-10-23T10:21:15.379Z,14.83
2022-10-23T10:24:04.364Z,14.88
2022-10-23T10:26:59.969Z,14.91
2022-10-23T10:29:43.359Z,14.95
2022-10-23T10:32:16.920Z,14.99
2022-10-23T10:34:50.508Z,15.04
2022-10-23T10:37:55.116Z,15.08
2022-10-23T10:40:58.787Z,15.13
2022-10-23T10:43:31.596Z,15.19
2022-10-23T10:46:10.635Z,15.23
2022-10-23T10:49:05.811Z,15.29
2022-10-23T10:52:00.956Z,15.40
2022-10-23T10:54:39.710Z,15.49
2022-10-23T10:57:21.868Z,15.59
2022-10-23T10:59:53.662Z,15.68
2022-10-23T11:02:38.029Z,15.76
2022-10-23T11:05:38.783Z,15.86
2022-10-23T11:08:44.406Z,15.95
2022-10-23T11:11:50.301Z,16.04
2022-10-23T11:14:19.824Z,16.12
2022-10-23T11:16:50.656Z,16.19
2022-10-23T11:19:34.673Z,16.26
2022-10-23T11:22:22.869Z,16.33
2022-10-23T11:25:12.518Z,16.40
2022-10-23T11:28:03.539Z,16.47
2022-10-23T11:30:59.519Z,16.54
2022-10-23T11:33:45.660Z,16.58
2022-10-23T11:36:38.549Z,16.62
2022-10-23T11:39:29.723Z,16.68
2022-10-23T11:42:05.484Z,16.73
2022-10-23T11:44:35.393Z,16.80
2022-10-23T11:47:05.494Z,16.90
2022-10-23T11:49:32.985Z,16.96
2022-10-23T11:52:05.563Z,17.02
2022-10-23T11:54:32.771Z,17.05
2022-10-23T11:57:13.193Z,17.08
2022-10-23T11:59:49.102Z,17.08
2022-10-23T12:02:33.815Z,17.07
2022-10-23T12:05:06.094Z,17.05
2022-10-23T12:07:41.981Z,17.02
2022-10-23T12:10:46.682Z,17.03
2022-10-23T12:13:38.174Z,17.02
2022-10-23T12:16:07.720Z,17.02
2022-10-23T12:18:47.443Z,17.04
2022-10-23T12:21:20.939Z,17.09
2022-10-23T12:24:22.813Z,17.14
2022-10-23T12:27:14.500Z,17.18
2022-10-23T12:29:53.420Z,17.23
2022-10-23T12:32:54.790Z,17.27
2022-10-23T12:35:27.230Z,17.34
2022-10-23T12:37:55.294Z,17.40
2022-10-23T12:40:29.950Z,17.47
2022-10-23T12:42:59.918Z,17.53
2022-10-23T12:45:28.593Z,17.58
2022-10-23T12:47:55.307Z,17.63
2022-10-23T12:50:28.527Z,17.68
2022-10-23T12:53:07.843Z,17.73
2022-10-23T12:56:01.373Z,17.79
2022-10-23T12:58:34.679Z,17.82
2022-10-23T13:01:04.298Z,17.86
2022-10-23T13:03:33.566Z,17.93
2022-10-23T13:06:03.255Z,17.99
2022-10-23T13:08:42.623Z,18.05
2022-10-23T13:11:15.876Z,18.09
2022-10-23T13:13:42.997Z,18.11
2022-10-23T13:16:18.028Z,18.12
2022-10-23T13:18:45.174Z,18.14
2022-10-23T13:21:20.574Z,18.16
2022-10-23T13:23:48.738Z,18.18
2022-10-23T13:26:34.495Z,18.22
2022-10-23T13:29:07.519Z,18.23
2022-10-23T13:31:36.733Z,18.26
2022-10-23T13:34:07.021Z,18.30
2022-10-23T13:36:39.730Z,18.33
2022-10-23T13:39:09.864Z,18.36
2022-10-23T13:41:40.849Z,18.39
2022-10-23T13:44:09.972Z,18.41
2022-10-23T13:46:36.794Z,18.43
2022-10-23T13:49:03.573Z,18.43
2022-10-23T13:51:37.647Z,18.42
2022-10-23T13:54:16.004Z,18.40
2022-10-23T13:56:42.903Z,18.38
2022-10-23T13:59:13.296Z,18.36
2022-10-23T14:01:40.413Z,18.34
2022-10-23T14:04:08.003Z,18.32
2022-10-23T14:06:37.718Z,18.30
2022-10-23T14:09:07.534Z,18.27
2022-10-23T14:11:34.793Z,18.25
2022-10-23T14:14:02.213Z,18.21
2022-10-23T14:16:29.387Z,18.18
2022-10-23T14:18:56.532Z,18.16
2022-10-23T14:21:25.133Z,18.13
2022-10-23T14:23:53.697Z,18.11
2022-10-23T14:26:25.848Z,18.09
2022-10-23T14:28:54.195Z,18.05
2022-10-23T14:31:22.023Z,18.03
2022-10-23T14:33:56.532Z,18.01
2022-10-23T14:36:28.265Z,17.99
2022-10-23T14:39:01.353Z,17.97
2022-10-23T14:41:28.032Z,18.05
2022-10-23T14:43:54.749Z,18.12
2022-10-23T14:46:24.235Z,18.18
2022-10-23T14:48:55.796Z,18.21
2022-10-23T14:51:27.811Z,18.24
2022-10-23T14:54:02.006Z,18.25
2022-10-23T14:56:30.582Z,18.24
2022-10-23T14:59:03.252Z,18.20
2022-10-23T15:01:36.571Z,18.16
2022-10-23T15:04:04.237Z,18.11
2022-10-23T15:06:31.454Z,18.05
2022-10-23T15:08:58.283Z,17.99
2022-10-23T15:11:25.968Z,17.93
2022-10-23T15:13:55.235Z,17.88
2022-10-23T15:16:24.168Z,17.82
2022-10-23T15:18:52.218Z,17.77
2022-10-23T15:21:19.565Z,17.73
2022-10-23T15:23:46.848Z,17.68
2022-10-23T15:26:20.658Z,17.63
2022-10-23T15:28:48.646Z,17.58
2022-10-23T15:31:30.823Z,17.53
2022-10-23T15:33:57.939Z,17.48
2022-10-23T15:36:25.312Z,17.42
2022-10-23T15:38:52.655Z,17.37
2022-10-23T15:41:28.156Z,17.31
2022-10-23T15:43:55.011Z,17.27
2022-10-23T15:46:22.375Z,17.30
2022-10-23T15:48:50.355Z,17.30
2022-10-23T15:51:17.360Z,17.25
2022-10-23T15:53:44.089Z,17.21
2022-10-23T15:56:11.570Z,17.17
2022-10-23T15:58:39.454Z,17.13
2022-10-23T16:01:07.072Z,17.08
2022-10-23T16:03:35.224Z,17.04
2022-10-23T16:06:15.161Z,17.00
2022-10-23T16:08:44.075Z,16.94
2022-10-23T16:11:33.673Z,16.89
2022-10-23T16:14:00.963Z,16.83
2022-10-23T16:16:28.886Z,16.78
2022-10-23T16:18:58.570Z,16.74
2022-10-23T16:21:28.014Z,16.69
2022-10-23T16:23:57.570Z,16.65
2022-10-23T16:26:26.229Z,16.61
2022-10-23T16:28:58.433Z,16.57
2022-10-23T16:31:26.363Z,16.54
2022-10-23T16:33:54.720Z,16.51
2022-10-23T16:36:22.551Z,16.48
2022-10-23T16:38:52.502Z,16.46
2022-10-23T16:41:21.175Z,16.44
2022-10-23T16:43:48.481Z,16.42
2022-10-23T16:46:18.513Z,16.41
2022-10-23T16:48:46.016Z,16.40
2022-10-23T16:51:17.037Z,16.45
2022-10-23T16:53:45.601Z,16.47
2022-10-23T16:56:16.091Z,16.47
2022-10-23T16:58:44.314Z,16.43
2022-10-23T17:01:18.120Z,16.40
2022-10-23T17:03:51.254Z,16.38
2022-10-23T17:06:21.198Z,16.36
2022-10-23T17:08:49.049Z,16.34
2022-10-23T17:11:21.273Z,16.31
2022-10-23T17:13:58.551Z,16.29
2022-10-23T17:16:36.555Z,16.24
2022-10-23T17:19:15.833Z,16.20
2022-10-23T17:21:48.549Z,16.15
2022-10-23T17:24:15.435Z,16.10
2022-10-23T17:26:42.661Z,16.06
2022-10-23T17:29:12.284Z,16.02
2022-10-23T17:31:43.419Z,15.97
2022-10-23T17:34:20.142Z,15.94
2022-10-23T17:36:52.934Z,15.89
2022-10-23T17:39:23.899Z,15.85
2022-10-23T17:41:51.980Z,15.81
2022-10-23T17:44:19.707Z,15.78
2022-10-23T17:46:46.972Z,15.75
2022-10-23T17:49:14.294Z,15.72
2022-10-23T17:51:41.782Z,15.70
2022-10-23T17:54:12.301Z,15.68
2022-10-23T17:56:41.425Z,15.65
2022-10-23T17:59:14.148Z,15.63
2022-10-23T18:01:44.343Z,15.59
2022-10-23T18:04:13.803Z,15.57
2022-10-23T18:06:44.486Z,15.56
2022-10-23T18:09:11.918Z,15.61
2022-10-23T18:11:48.764Z,15.63
2022-10-23T18:14:19.041Z,15.62
2022-10-23T18:16:46.926Z,15.59
2022-10-23T18:19:16.256Z,15.56
2022-10-23T18:21:43.707Z,15.53
2022-10-23T18:24:10.873Z,15.51
2022-10-23T18:26:39.842Z,15.48
2022-10-23T18:29:09.312Z,15.45
2022-10-23T18:31:38.078Z,15.42
2022-10-23T18:34:09.917Z,15.39
2022-10-23T18:36:40.353Z,15.35
2022-10-23T18:39:10.022Z,15.32
2022-10-23T18:41:40.905Z,15.28
2022-10-23T18:44:09.841Z,15.25
2022-10-23T18:46:38.187Z,15.22
2022-10-23T18:49:06.087Z,15.18
2022-10-23T18:51:36.042Z,15.14
2022-10-23T18:54:06.126Z,15.10
2022-10-23T18:56:36.773Z,15.07
2022-10-23T18:59:08.325Z,15.03
2022-10-23T19:01:37.187Z,15.00
2022-10-23T19:04:05.773Z,14.96
2022-10-23T19:06:35.396Z,14.92
2022-10-23T19:09:07.526Z,14.89
2022-10-23T19:11:35.034Z,14.86
2022-10-23T19:14:02.355Z,14.84
2022-10-23T19:16:45.119Z,14.90
2022-10-23T19:19:17.714Z,14.92
2022-10-23T19:21:46.536Z,14.92
2022-10-23T19:24:22.910Z,14.89
2022-10-23T19:26:51.044Z,14.87
2022-10-23T19:29:21.870Z,14.85
2022-10-23T19:31:50.146Z,14.83
2022-10-23T19:34:23.418Z,14.81
2022-10-23T19:36:52.639Z,14.79
2022-10-23T19:39:20.881Z,14.77
2022-10-23T19:41:49.049Z,14.74
2022-10-23T19:44:16.320Z,14.72
2022-10-23T19:46:43.991Z,14.69
2022-10-23T19:49:11.851Z,14.65
2022-10-23T19:51:39.862Z,14.62
2022-10-23T19:54:07.298Z,14.59
2022-10-23T19:56:35.194Z,14.56
2022-10-23T19:59:01.970Z,14.52
2022-10-23T20:01:33.252Z,14.48
2022-10-23T20:04:01.197Z,14.44
2022-10-23T20:06:32.337Z,14.40
2022-10-23T20:08:59.502Z,14.37
2022-10-23T20:11:30.024Z,14.34
2022-10-23T20:13:58.550Z,14.32
2022-10-23T20:16:28.443Z,14.38
2022-10-23T20:18:56.564Z,14.39
2022-10-23T20:21:24.656Z,14.40
2022-10-23T20:23:52.108Z,14.38
2022-10-23T20:26:22.394Z,14.36
2022-10-23T20:28:53.304Z,14.35
2022-10-23T20:31:24.470Z,14.33
2022-10-23T20:33:52.269Z,14.32
2022-10-23T20:36:29.147Z,14.30
2022-10-23T20:38:58.675Z,14.27
2022-10-23T20:41:28.804Z,14.25
2022-10-23T20:43:56.593Z,14.22
2022-10-23T20:46:23.915Z,14.20
2022-10-23T20:48:52.591Z,14.17
2022-10-23T20:51:21.877Z,14.14
2022-10-23T20:53:50.535Z,14.12
2022-10-23T20:56:33.011Z,14.09
2022-10-23T20:59:01.154Z,14.07
2022-10-23T21:01:29.169Z,14.05
2022-10-23T21:03:57.569Z,14.01
2022-10-23T21:06:26.802Z,13.99
2022-10-23T21:08:58.509Z,13.97
2022-10-23T21:11:26.172Z,14.02
2022-10-23T21:13:53.586Z,14.04
2022-10-23T21:16:26.117Z,14.04
2022-10-23T21:18:56.460Z,13.99
2022-10-23T21:21:23.762Z,13.96
2022-10-23T21:23:52.506Z,13.93
2022-10-23T21:26:21.135Z,13.90
2022-10-23T21:28:56.402Z,13.85
2022-10-23T21:31:36.241Z,13.81
2022-10-23T21:34:03.732Z,13.77
2022-10-23T21:36:34.150Z,13.74
2022-10-23T21:39:04.271Z,13.70
2022-10-23T21:41:38.921Z,13.66
2022-10-23T21:44:06.271Z,13.62
2022-10-23T21:46:35.142Z,13.58
2022-10-23T21:49:02.168Z,13.53
2022-10-23T21:51:37.853Z,13.50
2022-10-23T21:54:07.546Z,13.46
2022-10-23T21:56:40.239Z,13.42
2022-10-23T21:59:12.886Z,13.38
2022-10-23T22:01:43.314Z,13.37
2022-10-23T22:04:14.983Z,13.42
2022-10-23T22:06:43.277Z,13.45
2022-10-23T22:09:13.131Z,13.45
2022-10-23T22:11:40.031Z,13.42
2022-10-23T22:14:06.865Z,13.40
2022-10-23T22:16:33.648Z,13.38
2022-10-23T22:19:00.461Z,13.36
2022-10-23T22:21:29.279Z,13.35
2022-10-23T22:23:58.369Z,13.34
2022-10-23T22:26:29.906Z,13.31
2022-10-23T22:28:59.524Z,13.27
2022-10-23T22:31:29.109Z,13.22
2022-10-23T22:33:56.925Z,13.18
2022-10-23T22:36:24.622Z,13.15
2022-10-23T22:38:51.835Z,13.12
2022-10-23T22:41:19.114Z,13.09
2022-10-23T22:43:45.882Z,13.06
2022-10-23T22:46:18.512Z,13.04
2022-10-23T22:48:46.143Z,13.02
2022-10-23T22:51:15.552Z,13.07
2022-10-23T22:53:43.376Z,13.08
2022-10-23T22:56:19.469Z,13.08
2022-10-23T22:58:47.288Z,13.04
2022-10-23T23:01:18.975Z,13.01
2022-10-23T23:03:46.489Z,12.99
2022-10-23T23:06:14.410Z,12.98
2022-10-23T23:08:41.941Z,12.96
2022-10-23T23:11:11.741Z,12.94
2022-10-23T23:13:39.299Z,12.92
2022-10-23T23:16:06.919Z,12.88
2022-10-23T23:18:34.757Z,12.83
2022-10-23T23:21:05.533Z,12.81
2022-10-23T23:23:32.787Z,12.78
2022-10-23T23:25:59.539Z,12.75
2022-10-23T23:28:26.436Z,12.72
2022-10-23T23:31:05.587Z,12.69
2022-10-23T23:33:32.387Z,12.68
2022-10-23T23:35:59.140Z,12.73
2022-10-23T23:38:26.143Z,12.75
2022-10-23T23:40:54.235Z,12.75
2022-10-23T23:43:21.074Z,12.73
2022-10-23T23:45:47.893Z,12.71
2022-10-23T23:48:14.648Z,12.69
2022-10-23T23:50:41.741Z,12.66
2022-10-23T23:53:08.766Z,12.63
2022-10-23T23:55:35.768Z,12.60
2022-10-23T23:58:02.503Z,12.56
